EDDP

Leipzig/Halle Airport

Airport
ICAO code
EDDP
IATA Code
LEJ
Summary
ICAO Region
EUR
ICAO Territory
Location

Schkeuditz,

Serving
Leipzig
Elevation
470 ft
Coordinates
51° 25' 19" N , 12° 13' 13" E
Metar
Observation
EDDP 280420Z AUTO 35006KT 9999 FEW006 OVC029 M01/M02 Q1026 NOSIG
Station
Leipzig-Schkeuditz
Date/Time
2023-01-28 05:20:00
Wind direction
350°
Wind speed
06 kts
Lowest cloud amount
few clouds
Temperature
-1°C
Dew point
-2°C
Humidity
92%
QNH
1026 hPa
Weather condition
n/a

Runways

Designator Length Width Surface Rops
08L/26R 3600 45 CON Yes/Yes
08R/26L 3600 60 CON Yes/Yes

Airport map

Aerial View

SKYbrary Partners:

Safety knowledge contributed by: